Time;durP1;ratioP1;P1;durP2;ratioP2;P2;SDS_P1;SDS_P2;PMS_P1;PMS_P2;Temp;Humidity;BMP_temperature;BMP_pressure;BME280_temperature;BME280_humidity;BME280_pressure;Samples;Min_cycle;Max_cycle;Signal;HPM_P1;HPM_P2
2023/08/05 00:02:10;;;;;;;6.38;3.25;;;;;;;;;;5128713;27;20556;-65
2023/08/05 00:04:35;;;;;;;6.07;3.00;;;;;;;;;;5125242;27;20022;-63
2023/08/05 00:07:00;;;;;;;8.07;3.57;;;;;;;;;;5123239;27;20046;-64
2023/08/05 00:09:25;;;;;;;6.45;3.35;;;;;;;;;;5128386;27;20094;-67
2023/08/05 00:11:50;;;;;;;5.57;3.00;;;;;;;;;;5118312;27;20046;-68
2023/08/05 00:14:15;;;;;;;5.93;3.03;;;;;;;;;;5128206;27;20049;-67
2023/08/05 00:16:40;;;;;;;6.87;2.80;;;;;;;;;;5139312;27;20024;-64
2023/08/05 00:19:06;;;;;;;5.72;2.95;;;;;;;;;;5134073;27;20022;-68
2023/08/05 00:21:31;;;;;;;6.90;3.55;;;;;;;;;;5129801;27;20076;-63
2023/08/05 00:23:56;;;;;;;6.00;2.73;;;;;;;;;;5128839;27;20523;-64
2023/08/05 00:26:21;;;;;;;6.23;2.80;;;;;;;;;;5129947;27;20479;-68
2023/08/05 00:28:46;;;;;;;5.83;2.50;;;;;;;;;;5120611;27;20023;-64
2023/08/05 00:31:12;;;;;;;4.83;2.70;;;;;;;;;;5132278;27;20023;-67
2023/08/05 00:33:37;;;;;;;4.50;2.47;;;;;;;;;;5126105;27;20051;-63
2023/08/05 00:36:02;;;;;;;5.50;2.50;;;;;;;;;;5133683;27;20084;-66
2023/08/05 00:38:27;;;;;;;6.23;3.07;;;;;;;;;;5119036;27;20034;-63
2023/08/05 00:40:52;;;;;;;5.00;2.70;;;;;;;;;;5126020;27;20045;-64
2023/08/05 00:43:18;;;;;;;5.60;2.80;;;;;;;;;;5131579;27;20027;-63
2023/08/05 00:45:43;;;;;;;5.17;2.60;;;;;;;;;;5131133;27;20031;-64
2023/08/05 00:48:08;;;;;;;5.47;2.40;;;;;;;;;;5119776;27;20054;-75
2023/08/05 00:50:33;;;;;;;7.20;3.40;;;;;;;;;;5128604;27;20038;-63
2023/08/05 00:52:59;;;;;;;6.00;3.10;;;;;;;;;;5133016;27;20027;-64
2023/08/05 00:55:24;;;;;;;6.22;3.20;;;;;;;;;;5129185;27;20375;-65
2023/08/05 00:57:49;;;;;;;6.70;3.70;;;;;;;;;;5124878;27;20023;-63
2023/08/05 01:00:15;;;;;;;5.57;3.10;;;;;;;;;;5126597;27;20031;-64
2023/08/05 01:02:40;;;;;;;5.77;2.87;;;;;;;;;;5129970;27;20478;-63
2023/08/05 01:05:05;;;;;;;6.70;3.30;;;;;;;;;;5129966;27;20056;-63
2023/08/05 01:07:32;;;;;;;5.37;2.90;;;;;;;;;;5132916;27;20016;-67
2023/08/05 01:09:57;;;;;;;5.13;2.90;;;;;;;;;;5132926;27;20474;-63
2023/08/05 01:12:22;;;;;;;5.43;3.40;;;;;;;;;;5128992;27;20072;-68
2023/08/05 01:14:48;;;;;;;6.97;3.22;;;;;;;;;;5127287;27;20023;-64
2023/08/05 01:17:13;;;;;;;6.50;4.05;;;;;;;;;;5132636;27;20019;-64
2023/08/05 01:19:39;;;;;;;5.77;2.80;;;;;;;;;;5129154;27;20038;-63
2023/08/05 01:22:26;;;;;;;5.50;2.90;;;;;;;;;;5125921;27;20498;-63
2023/08/05 01:24:59;;;;;;;5.45;3.00;;;;;;;;;;5128286;27;20145;-66
2023/08/05 01:27:25;;;;;;;8.45;3.28;;;;;;;;;;5122397;27;20027;-70
2023/08/05 01:29:51;;;;;;;7.65;3.22;;;;;;;;;;5120536;27;20027;-62
2023/08/05 01:32:17;;;;;;;6.97;3.22;;;;;;;;;;5124706;27;20419;-64
2023/08/05 01:34:43;;;;;;;6.10;3.35;;;;;;;;;;5126986;27;20019;-62
2023/08/05 01:37:08;;;;;;;5.43;3.08;;;;;;;;;;5131377;27;20398;-75
2023/08/05 01:39:33;;;;;;;5.80;3.40;;;;;;;;;;5122731;27;20089;-65
2023/08/05 01:41:58;;;;;;;6.23;3.33;;;;;;;;;;5124305;27;20027;-62
2023/08/05 01:44:24;;;;;;;6.53;3.70;;;;;;;;;;5123883;27;20015;-64
2023/08/05 01:46:49;;;;;;;7.63;3.37;;;;;;;;;;5121190;27;20027;-63
2023/08/05 01:49:14;;;;;;;5.85;3.35;;;;;;;;;;5126696;27;20026;-64
2023/08/05 01:51:39;;;;;;;6.22;3.28;;;;;;;;;;5120123;27;20029;-66
2023/08/05 01:54:04;;;;;;;5.82;3.38;;;;;;;;;;5131398;27;20430;-62
2023/08/05 01:56:29;;;;;;;6.20;3.20;;;;;;;;;;5125825;27;20023;-66
2023/08/05 01:58:54;;;;;;;6.17;3.27;;;;;;;;;;5129021;27;20046;-63
2023/08/05 02:01:20;;;;;;;8.10;3.60;;;;;;;;;;5127446;27;20030;-69
2023/08/05 02:03:45;;;;;;;6.37;3.87;;;;;;;;;;5116666;27;20124;-63
2023/08/05 02:06:10;;;;;;;5.80;3.50;;;;;;;;;;5129072;27;20031;-65
2023/08/05 02:08:35;;;;;;;7.00;3.67;;;;;;;;;;5132459;27;20022;-62
2023/08/05 02:11:02;;;;;;;6.05;3.90;;;;;;;;;;5125135;27;20095;-64
2023/08/05 02:13:27;;;;;;;5.32;3.08;;;;;;;;;;5122531;27;20019;-63
2023/08/05 02:15:52;;;;;;;7.33;3.60;;;;;;;;;;5130353;27;20027;-65
2023/08/05 02:18:17;;;;;;;7.90;3.50;;;;;;;;;;5123176;27;20011;-67
2023/08/05 02:20:42;;;;;;;7.43;3.70;;;;;;;;;;5123519;27;20038;-65
2023/08/05 02:23:08;;;;;;;7.43;3.40;;;;;;;;;;5129956;27;20027;-68
2023/08/05 02:25:33;;;;;;;5.90;3.67;;;;;;;;;;5122524;27;20020;-64
2023/08/05 02:27:58;;;;;;;7.17;4.03;;;;;;;;;;5122081;28;20445;-65
2023/08/05 02:30:23;;;;;;;6.80;3.67;;;;;;;;;;5121021;28;20364;-64
2023/08/05 02:32:48;;;;;;;6.27;3.43;;;;;;;;;;5124364;27;20548;-66
2023/08/05 02:35:14;;;;;;;6.23;3.40;;;;;;;;;;5119994;27;20035;-63
2023/08/05 02:37:39;;;;;;;6.00;4.10;;;;;;;;;;5125477;27;20080;-62
2023/08/05 02:40:05;;;;;;;6.93;3.33;;;;;;;;;;5124352;28;20015;-62
2023/08/05 02:42:30;;;;;;;5.68;3.47;;;;;;;;;;5123643;27;20031;-65
2023/08/05 02:44:55;;;;;;;6.40;3.40;;;;;;;;;;5127326;27;20060;-62
2023/08/05 02:47:20;;;;;;;5.70;3.47;;;;;;;;;;5123815;28;20148;-66
2023/08/05 02:49:46;;;;;;;7.00;3.90;;;;;;;;;;5110437;27;20035;-63
2023/08/05 02:52:11;;;;;;;5.97;3.73;;;;;;;;;;5120041;27;20105;-64
2023/08/05 02:54:36;;;;;;;6.30;3.40;;;;;;;;;;5122562;27;20385;-63
2023/08/05 02:57:01;;;;;;;5.87;3.30;;;;;;;;;;5121465;28;20019;-64
2023/08/05 02:59:27;;;;;;;6.67;3.10;;;;;;;;;;5124184;27;20401;-70
2023/08/05 03:01:52;;;;;;;5.85;3.20;;;;;;;;;;5118685;28;20134;-62
2023/08/05 03:04:18;;;;;;;9.03;3.63;;;;;;;;;;5120007;27;20042;-64
2023/08/05 03:06:43;;;;;;;6.40;3.40;;;;;;;;;;5124049;27;20019;-69
2023/08/05 03:09:08;;;;;;;5.75;3.40;;;;;;;;;;5119253;27;20027;-73
2023/08/05 03:11:34;;;;;;;5.07;3.30;;;;;;;;;;5130747;27;20038;-62
2023/08/05 03:13:59;;;;;;;6.53;3.35;;;;;;;;;;5119980;27;20018;-66
2023/08/05 03:16:25;;;;;;;6.43;3.43;;;;;;;;;;5122522;27;20019;-63
2023/08/05 03:18:50;;;;;;;5.97;3.20;;;;;;;;;;5130703;27;20122;-65
2023/08/05 03:21:15;;;;;;;5.80;3.15;;;;;;;;;;5118191;27;20058;-66
2023/08/05 03:23:40;;;;;;;7.00;3.40;;;;;;;;;;5131472;27;20023;-63
2023/08/05 03:26:05;;;;;;;6.30;2.87;;;;;;;;;;5123881;27;20024;-66
2023/08/05 03:28:30;;;;;;;6.30;3.80;;;;;;;;;;5131725;27;20019;-63
2023/08/05 03:30:56;;;;;;;6.43;3.67;;;;;;;;;;5126756;27;20042;-64
2023/08/05 03:33:22;;;;;;;6.93;3.25;;;;;;;;;;5130630;27;20516;-67
2023/08/05 03:35:47;;;;;;;6.53;3.20;;;;;;;;;;5125940;27;20506;-64
2023/08/05 03:38:12;;;;;;;5.93;3.13;;;;;;;;;;5122924;27;20019;-63
2023/08/05 03:40:37;;;;;;;6.47;3.63;;;;;;;;;;5125186;27;20040;-63
2023/08/05 03:43:03;;;;;;;5.83;3.30;;;;;;;;;;5127810;27;20043;-70
2023/08/05 03:45:28;;;;;;;5.78;2.95;;;;;;;;;;5130752;27;20031;-64
2023/08/05 03:47:54;;;;;;;6.93;3.30;;;;;;;;;;5125288;27;20102;-63
2023/08/05 03:50:20;;;;;;;6.40;3.15;;;;;;;;;;5132405;27;20505;-64
2023/08/05 03:52:45;;;;;;;5.10;3.08;;;;;;;;;;5123604;27;20019;-67
2023/08/05 03:55:11;;;;;;;5.70;3.50;;;;;;;;;;5124044;27;20513;-60
2023/08/05 03:57:36;;;;;;;6.90;3.30;;;;;;;;;;5127139;27;20031;-68
2023/08/05 04:00:01;;;;;;;6.30;3.47;;;;;;;;;;5132689;27;20022;-66
2023/08/05 04:02:26;;;;;;;5.93;3.40;;;;;;;;;;5116662;27;20035;-64
2023/08/05 04:04:52;;;;;;;5.65;3.33;;;;;;;;;;5130386;27;20046;-70
2023/08/05 04:07:19;;;;;;;5.50;2.90;;;;;;;;;;5130500;27;20043;-64
2023/08/05 04:09:44;;;;;;;5.95;2.67;;;;;;;;;;5131857;27;20463;-65
2023/08/05 04:12:10;;;;;;;6.20;2.90;;;;;;;;;;5133108;27;20019;-63
2023/08/05 04:14:37;;;;;;;7.32;2.95;;;;;;;;;;5127306;27;20043;-64
2023/08/05 04:17:02;;;;;;;6.88;2.67;;;;;;;;;;5124389;27;20096;-69
2023/08/05 04:19:28;;;;;;;6.25;3.03;;;;;;;;;;5125839;27;20041;-64
2023/08/05 04:21:54;;;;;;;5.25;2.70;;;;;;;;;;5127229;27;20386;-65
2023/08/05 04:24:22;;;;;;;5.22;2.88;;;;;;;;;;5128099;27;20020;-62
2023/08/05 04:26:48;;;;;;;6.93;3.28;;;;;;;;;;5127151;27;20047;-63
2023/08/05 04:29:17;;;;;;;4.78;2.53;;;;;;;;;;5129695;27;20050;-63
2023/08/05 04:31:42;;;;;;;6.03;2.72;;;;;;;;;;5126399;27;20031;-62
2023/08/05 04:34:07;;;;;;;7.20;2.88;;;;;;;;;;5123160;27;20092;-65
2023/08/05 04:36:32;;;;;;;6.13;3.03;;;;;;;;;;5118813;27;20030;-68
2023/08/05 04:38:59;;;;;;;6.77;3.17;;;;;;;;;;5124779;27;20363;-64
2023/08/05 04:41:24;;;;;;;5.35;3.30;;;;;;;;;;5127275;27;20056;-65
2023/08/05 04:43:49;;;;;;;4.80;2.80;;;;;;;;;;5124841;27;20355;-65
2023/08/05 04:46:15;;;;;;;5.85;3.08;;;;;;;;;;5123348;27;20069;-66
2023/08/05 04:48:40;;;;;;;5.33;3.10;;;;;;;;;;5118820;27;20019;-63
2023/08/05 04:51:05;;;;;;;5.80;3.47;;;;;;;;;;5121177;27;20028;-67
2023/08/05 04:53:30;;;;;;;6.80;3.53;;;;;;;;;;5119130;27;20023;-63
2023/08/05 04:55:55;;;;;;;4.53;3.17;;;;;;;;;;5130372;27;20477;-63
2023/08/05 04:58:20;;;;;;;6.47;3.13;;;;;;;;;;5130052;27;20007;-63
2023/08/05 05:00:46;;;;;;;5.73;2.80;;;;;;;;;;5118776;27;20026;-63
2023/08/05 05:03:11;;;;;;;5.22;3.00;;;;;;;;;;5119619;27;20035;-73
2023/08/05 05:05:37;;;;;;;6.53;2.83;;;;;;;;;;5128538;27;20391;-62
2023/08/05 05:08:02;;;;;;;7.33;3.63;;;;;;;;;;5126405;27;20024;-62
2023/08/05 05:10:27;;;;;;;5.65;2.80;;;;;;;;;;5119573;27;20066;-65
2023/08/05 05:12:52;;;;;;;5.38;2.75;;;;;;;;;;5130233;27;20075;-63
2023/08/05 05:15:20;;;;;;;7.23;3.60;;;;;;;;;;5132438;27;20034;-62
2023/08/05 05:17:45;;;;;;;6.28;3.30;;;;;;;;;;5132866;27;20099;-63
2023/08/05 05:20:11;;;;;;;5.80;3.17;;;;;;;;;;5132576;27;20081;-64
2023/08/05 05:22:36;;;;;;;6.20;3.50;;;;;;;;;;5130769;27;20097;-62
2023/08/05 05:25:01;;;;;;;5.43;3.20;;;;;;;;;;5130411;27;20029;-62
2023/08/05 05:27:26;;;;;;;4.93;2.73;;;;;;;;;;5131305;27;20034;-63
2023/08/05 05:29:51;;;;;;;7.93;3.30;;;;;;;;;;5132568;27;20034;-74
2023/08/05 05:32:17;;;;;;;5.60;2.77;;;;;;;;;;5123335;27;20465;-63
2023/08/05 05:34:42;;;;;;;5.77;3.17;;;;;;;;;;5122463;27;20043;-62
2023/08/05 05:37:07;;;;;;;6.97;2.90;;;;;;;;;;5127776;27;20449;-62
2023/08/05 05:39:32;;;;;;;5.27;2.63;;;;;;;;;;5121317;27;20024;-64
2023/08/05 05:41:58;;;;;;;6.30;3.17;;;;;;;;;;5115225;27;20023;-67
2023/08/05 05:44:23;;;;;;;6.97;3.10;;;;;;;;;;5118615;27;20452;-62
2023/08/05 05:46:48;;;;;;;7.00;2.80;;;;;;;;;;5113654;27;20429;-63
2023/08/05 05:49:15;;;;;;;5.43;2.73;;;;;;;;;;5118200;27;20023;-66
2023/08/05 05:51:42;;;;;;;6.82;3.08;;;;;;;;;;5131182;27;20039;-66
2023/08/05 05:54:07;;;;;;;6.00;3.00;;;;;;;;;;5111905;27;20024;-69
2023/08/05 05:56:32;;;;;;;5.30;2.90;;;;;;;;;;5124933;27;20493;-68
2023/08/05 05:58:58;;;;;;;6.03;2.73;;;;;;;;;;5122340;27;20118;-62
2023/08/05 06:01:24;;;;;;;;;;;;;;;;;;5118783;27;20483;-63
2023/08/05 06:03:50;;;;;;;5.72;2.90;;;;;;;;;;5132160;27;19910;-64
2023/08/05 06:06:15;;;;;;;5.45;3.20;;;;;;;;;;5125468;27;20015;-63
2023/08/05 06:08:41;;;;;;;5.23;2.70;;;;;;;;;;5117265;27;20042;-66
2023/08/05 06:11:07;;;;;;;6.32;3.15;;;;;;;;;;5127496;27;20467;-64
2023/08/05 06:13:32;;;;;;;5.80;3.17;;;;;;;;;;5127647;27;20470;-68
2023/08/05 06:15:57;;;;;;;5.80;3.37;;;;;;;;;;5120186;27;20479;-65
2023/08/05 06:18:23;;;;;;;6.88;3.13;;;;;;;;;;5115354;27;20042;-63
2023/08/05 06:20:48;;;;;;;6.13;2.93;;;;;;;;;;5119362;27;20103;-67
2023/08/05 06:23:13;;;;;;;6.00;3.08;;;;;;;;;;5125189;27;20058;-66
2023/08/05 06:25:38;;;;;;;6.00;3.13;;;;;;;;;;5128094;27;20026;-66
2023/08/05 06:28:04;;;;;;;6.07;3.00;;;;;;;;;;5126317;27;20447;-66
2023/08/05 06:30:29;;;;;;;5.33;3.00;;;;;;;;;;5126371;27;20047;-64
2023/08/05 06:32:54;;;;;;;5.55;3.20;;;;;;;;;;5128146;27;20072;-64
2023/08/05 06:35:19;;;;;;;5.97;3.10;;;;;;;;;;5129584;27;20087;-63
2023/08/05 06:37:44;;;;;;;5.30;2.90;;;;;;;;;;5128639;27;20027;-72
2023/08/05 06:40:10;;;;;;;8.30;3.27;;;;;;;;;;5130156;27;20031;-63
2023/08/05 06:42:35;;;;;;;5.53;2.95;;;;;;;;;;5131979;27;20101;-63
2023/08/05 06:45:00;;;;;;;5.30;2.90;;;;;;;;;;5125012;27;20379;-62
2023/08/05 06:47:30;;;;;;;5.73;2.63;;;;;;;;;;5121510;27;20023;-63
2023/08/05 06:49:56;;;;;;;5.20;2.90;;;;;;;;;;5131054;27;20371;-64
2023/08/05 06:52:22;;;;;;;5.28;2.65;;;;;;;;;;5115150;27;20018;-64
2023/08/05 06:54:47;;;;;;;5.20;2.80;;;;;;;;;;5123364;27;20037;-66
2023/08/05 06:57:12;;;;;;;5.30;3.00;;;;;;;;;;5128625;27;20019;-63
2023/08/05 06:59:37;;;;;;;6.60;2.60;;;;;;;;;;5135519;27;20072;-64
2023/08/05 07:02:03;;;;;;;5.80;2.88;;;;;;;;;;5132906;27;20039;-63
2023/08/05 07:04:28;;;;;;;6.28;2.92;;;;;;;;;;5121958;27;20028;-61
2023/08/05 07:06:53;;;;;;;5.33;2.60;;;;;;;;;;5122945;27;20110;-64
2023/08/05 07:09:19;;;;;;;5.45;2.63;;;;;;;;;;5126766;27;20121;-67
2023/08/05 07:11:45;;;;;;;5.57;2.80;;;;;;;;;;5121952;27;20030;-64
2023/08/05 07:14:10;;;;;;;5.50;2.60;;;;;;;;;;5125188;27;20112;-70
2023/08/05 07:16:35;;;;;;;4.60;2.33;;;;;;;;;;5121509;27;20094;-67
2023/08/05 07:19:00;;;;;;;4.53;2.20;;;;;;;;;;5131964;27;20076;-62
2023/08/05 07:21:26;;;;;;;5.83;2.60;;;;;;;;;;5122628;27;20451;-64
2023/08/05 07:23:51;;;;;;;6.00;2.20;;;;;;;;;;5128778;27;20457;-62
2023/08/05 07:26:16;;;;;;;6.60;2.53;;;;;;;;;;5124352;27;20035;-64
2023/08/05 07:28:41;;;;;;;5.90;2.70;;;;;;;;;;5127590;27;20030;-64
2023/08/05 07:31:10;;;;;;;5.77;2.70;;;;;;;;;;5120815;27;20023;-63
2023/08/05 07:33:36;;;;;;;5.75;2.78;;;;;;;;;;5118240;27;20023;-61
2023/08/05 07:36:08;;;;;;;4.57;2.40;;;;;;;;;;5118355;27;20024;-63
2023/08/05 07:38:35;;;;;;;4.30;2.30;;;;;;;;;;5127005;27;20023;-60
2023/08/05 07:41:00;;;;;;;5.82;2.38;;;;;;;;;;5128102;27;20059;-70
2023/08/05 07:43:29;;;;;;;4.70;2.40;;;;;;;;;;5115349;27;20110;-60
2023/08/05 07:45:56;;;;;;;4.65;2.63;;;;;;;;;;5124239;27;20509;-64
2023/08/05 07:48:21;;;;;;;6.13;2.20;;;;;;;;;;5130454;27;20023;-61
2023/08/05 07:50:47;;;;;;;5.07;2.63;;;;;;;;;;5123963;27;20026;-61
2023/08/05 07:53:13;;;;;;;4.63;2.50;;;;;;;;;;5131260;27;20012;-64
2023/08/05 07:55:40;;;;;;;4.70;2.10;;;;;;;;;;5131204;27;20048;-64
2023/08/05 07:58:06;;;;;;;4.80;2.78;;;;;;;;;;5118859;27;20034;-63
2023/08/05 08:00:31;;;;;;;5.60;3.03;;;;;;;;;;5129213;27;20019;-61
2023/08/05 08:02:56;;;;;;;5.15;2.42;;;;;;;;;;5130275;27;20035;-63
2023/08/05 08:05:22;;;;;;;5.37;2.30;;;;;;;;;;5118725;27;20016;-62
2023/08/05 08:07:47;;;;;;;5.73;2.40;;;;;;;;;;5125881;27;20016;-62
2023/08/05 08:10:12;;;;;;;6.97;2.63;;;;;;;;;;5117877;27;20020;-61
2023/08/05 08:12:38;;;;;;;6.00;2.13;;;;;;;;;;5125513;27;20019;-61
2023/08/05 08:15:03;;;;;;;5.40;2.40;;;;;;;;;;5116087;27;20022;-61
2023/08/05 08:17:28;;;;;;;4.90;2.20;;;;;;;;;;5120141;27;20551;-63
2023/08/05 08:19:53;;;;;;;5.30;2.33;;;;;;;;;;5124650;27;20366;-62
2023/08/05 08:22:19;;;;;;;5.07;2.30;;;;;;;;;;5121608;27;20023;-64
2023/08/05 08:24:44;;;;;;;5.63;2.53;;;;;;;;;;5121080;27;20031;-63
2023/08/05 08:27:09;;;;;;;4.33;2.40;;;;;;;;;;5127737;27;20030;-63
2023/08/05 08:29:34;;;;;;;5.47;2.50;;;;;;;;;;5127180;27;20019;-63
2023/08/05 08:31:59;;;;;;;6.43;2.37;;;;;;;;;;5130918;27;20031;-62
2023/08/05 08:34:24;;;;;;;5.17;2.17;;;;;;;;;;5125404;27;20021;-62
2023/08/05 08:36:50;;;;;;;4.77;2.17;;;;;;;;;;5127905;27;20019;-62
2023/08/05 08:39:15;;;;;;;5.60;2.27;;;;;;;;;;5130435;27;20023;-64
2023/08/05 08:41:41;;;;;;;4.70;2.05;;;;;;;;;;5129983;27;20031;-62
2023/08/05 08:44:08;;;;;;;5.40;1.90;;;;;;;;;;5126757;27;20035;-61
2023/08/05 08:46:33;;;;;;;4.65;1.77;;;;;;;;;;5121189;27;20016;-65
2023/08/05 08:48:58;;;;;;;5.40;1.90;;;;;;;;;;5131045;27;20383;-64
2023/08/05 08:51:24;;;;;;;5.37;2.53;;;;;;;;;;5127701;27;20066;-63
2023/08/05 08:53:50;;;;;;;5.07;2.00;;;;;;;;;;5130735;27;20102;-62
2023/08/05 08:56:15;;;;;;;;;;;;;;;;;;5129828;27;20502;-62
2023/08/05 08:58:40;;;;;;;5.23;1.90;;;;;;;;;;5131331;27;19912;-63
2023/08/05 09:01:06;;;;;;;4.60;2.00;;;;;;;;;;5123777;27;20046;-62
2023/08/05 09:03:32;;;;;;;;;;;;;;;;;;5115279;27;20057;-61
2023/08/05 09:05:58;;;;;;;4.88;1.90;;;;;;;;;;5121279;27;20397;-61
2023/08/05 09:08:23;;;;;;;5.50;2.40;;;;;;;;;;5129471;27;20474;-61
2023/08/05 09:10:49;;;;;;;4.50;1.90;;;;;;;;;;5127133;27;20039;-61
2023/08/05 09:13:19;;;;;;;5.32;2.08;;;;;;;;;;5121020;27;20475;-61
2023/08/05 09:15:45;;;;;;;4.30;1.90;;;;;;;;;;5120828;27;20027;-61
2023/08/05 09:18:10;;;;;;;4.80;1.98;;;;;;;;;;5120510;27;20073;-61
2023/08/05 09:20:36;;;;;;;4.70;1.77;;;;;;;;;;5120821;27;20023;-61
2023/08/05 09:23:02;;;;;;;5.63;2.35;;;;;;;;;;5125585;27;20049;-61
2023/08/05 09:25:27;;;;;;;;;;;;;;;;;;5119747;27;20019;-60
2023/08/05 09:27:53;;;;;;;4.03;1.60;;;;;;;;;;5128561;27;19918;-61
2023/08/05 09:30:22;;;;;;;4.65;1.85;;;;;;;;;;5126271;27;20024;-61
2023/08/05 09:32:47;;;;;;;5.50;1.60;;;;;;;;;;5115372;27;20027;-61
2023/08/05 09:35:13;;;;;;;4.70;1.83;;;;;;;;;;5126477;27;20028;-59
2023/08/05 09:37:39;;;;;;;3.95;1.70;;;;;;;;;;5125101;27;20405;-60
2023/08/05 09:40:13;;;;;;;3.80;1.67;;;;;;;;;;5118233;27;20023;-62
2023/08/05 09:42:40;;;;;;;4.88;1.98;;;;;;;;;;5123382;27;20031;-61
2023/08/05 09:45:08;;;;;;;5.05;1.90;;;;;;;;;;5124604;27;20060;-61
2023/08/05 09:47:34;;;;;;;7.28;2.15;;;;;;;;;;5128678;27;20445;-62
2023/08/05 09:50:00;;;;;;;6.57;1.67;;;;;;;;;;5120149;27;20057;-60
2023/08/05 09:52:28;;;;;;;3.90;1.75;;;;;;;;;;5125313;27;20386;-61
2023/08/05 09:54:57;;;;;;;3.63;1.65;;;;;;;;;;5124170;27;20600;-60
2023/08/05 09:57:24;;;;;;;4.20;1.60;;;;;;;;;;5126694;27;20016;-61
2023/08/05 09:59:49;;;;;;;;;;;;;;;;;;5125517;27;20094;-61
2023/08/05 10:02:18;;;;;;;5.07;1.73;;;;;;;;;;5121699;27;20006;-61
2023/08/05 10:04:43;;;;;;;4.00;1.80;;;;;;;;;;5125868;27;20020;-60
2023/08/05 10:07:09;;;;;;;5.77;1.80;;;;;;;;;;5116204;27;20026;-60
2023/08/05 10:09:34;;;;;;;5.37;1.73;;;;;;;;;;5124940;27;20088;-59
2023/08/05 10:12:00;;;;;;;4.27;2.00;;;;;;;;;;5123189;27;20457;-60
2023/08/05 10:14:26;;;;;;;4.50;1.85;;;;;;;;;;5127930;27;20073;-61
2023/08/05 10:16:52;;;;;;;4.95;1.80;;;;;;;;;;5125102;27;20390;-62
2023/08/05 10:19:26;;;;;;;4.95;1.88;;;;;;;;;;5118468;27;20011;-62
2023/08/05 10:21:51;;;;;;;4.32;1.63;;;;;;;;;;5129479;27;20136;-60
2023/08/05 10:24:17;;;;;;;4.07;1.60;;;;;;;;;;5117901;27;20470;-60
2023/08/05 10:26:43;;;;;;;4.15;1.77;;;;;;;;;;5122257;27;20094;-60
2023/08/05 10:29:38;;;;;;;4.68;1.48;;;;;;;;;;5131590;27;20501;-61
2023/08/05 10:32:10;;;;;;;5.80;1.75;;;;;;;;;;5101495;27;20035;-61
2023/08/05 10:34:35;;;;;;;4.65;1.83;;;;;;;;;;5113729;27;20020;-61
2023/08/05 10:37:01;;;;;;;3.63;1.60;;;;;;;;;;5128795;27;20034;-60
2023/08/05 10:39:45;;;;;;;5.00;1.55;;;;;;;;;;5118794;27;20094;-60
2023/08/05 10:42:20;;;;;;;3.15;1.40;;;;;;;;;;5131421;28;20475;-58
2023/08/05 10:44:48;;;;;;;4.20;1.80;;;;;;;;;;5130022;27;20498;-61
2023/08/05 10:47:13;;;;;;;3.80;1.60;;;;;;;;;;5129690;28;20446;-61
2023/08/05 10:49:38;;;;;;;4.60;1.60;;;;;;;;;;5123078;28;20042;-60
2023/08/05 10:52:03;;;;;;;4.53;1.73;;;;;;;;;;5129606;27;20029;-61
2023/08/05 10:54:31;;;;;;;3.87;1.47;;;;;;;;;;5131102;27;20026;-59
2023/08/05 10:56:56;;;;;;;4.03;1.45;;;;;;;;;;5129727;27;20576;-60
2023/08/05 10:59:21;;;;;;;7.83;1.83;;;;;;;;;;5130490;27;20518;-59
2023/08/05 11:01:56;;;;;;;4.78;1.60;;;;;;;;;;5131456;27;20027;-60
2023/08/05 11:04:28;;;;;;;5.90;2.20;;;;;;;;;;5129133;27;20097;-59
2023/08/05 11:06:53;;;;;;;;;;;;;;;;;;5131761;27;20019;-59
2023/08/05 11:09:19;;;;;;;4.63;1.67;;;;;;;;;;5132002;27;19903;-61
2023/08/05 11:11:47;;;;;;;4.53;1.70;;;;;;;;;;5128072;27;20505;-62
2023/08/05 11:14:13;;;;;;;5.07;1.63;;;;;;;;;;5128741;28;20031;-62
2023/08/05 11:16:43;;;;;;;4.80;1.88;;;;;;;;;;5131858;27;20563;-59
2023/08/05 11:19:09;;;;;;;4.88;1.77;;;;;;;;;;5127305;27;20475;-60
2023/08/05 11:21:35;;;;;;;5.03;1.20;;;;;;;;;;5131067;27;20470;-58
2023/08/05 11:24:00;;;;;;;3.63;1.50;;;;;;;;;;5130842;27;20030;-60
2023/08/05 11:26:25;;;;;;;4.37;1.50;;;;;;;;;;5127341;28;20019;-60
2023/08/05 11:28:51;;;;;;;4.13;1.60;;;;;;;;;;5131372;27;20092;-60
2023/08/05 11:31:23;;;;;;;5.00;1.50;;;;;;;;;;5134217;27;20416;-61
2023/08/05 11:33:48;;;;;;;;;;;;;;;;;;5135256;27;20011;-60
2023/08/05 11:36:13;;;;;;;4.40;1.90;;;;;;;;;;5132413;27;19960;-60
2023/08/05 11:38:39;;;;;;;3.90;1.53;;;;;;;;;;5135021;27;20019;-60
2023/08/05 11:41:04;;;;;;;3.72;1.50;;;;;;;;;;5135164;27;20036;-59
2023/08/05 11:43:31;;;;;;;4.27;1.47;;;;;;;;;;5125122;27;20336;-60
2023/08/05 11:45:57;;;;;;;4.00;1.77;;;;;;;;;;5128997;27;20514;-60
2023/08/05 11:48:22;;;;;;;4.70;1.73;;;;;;;;;;5135019;27;20022;-61
2023/08/05 11:50:48;;;;;;;4.50;1.50;;;;;;;;;;5132852;27;20020;-61
2023/08/05 11:53:14;;;;;;;;;;;;;;;;;;5134467;27;20102;-61
2023/08/05 11:55:39;;;;;;;3.53;1.52;;;;;;;;;;5134604;27;19946;-61
2023/08/05 11:58:05;;;;;;;3.83;1.55;;;;;;;;;;5134792;27;20098;-61
2023/08/05 12:00:30;;;;;;;5.03;2.10;;;;;;;;;;5121407;27;20030;-60
2023/08/05 12:02:56;;;;;;;4.70;1.50;;;;;;;;;;5132701;27;20039;-60
2023/08/05 12:05:22;;;;;;;3.28;1.30;;;;;;;;;;5132584;27;20534;-61
2023/08/05 12:07:47;;;;;;;4.75;1.30;;;;;;;;;;5131486;27;20144;-59
2023/08/05 12:10:13;;;;;;;4.73;1.83;;;;;;;;;;5131512;27;20102;-61
2023/08/05 12:12:42;;;;;;;4.78;1.75;;;;;;;;;;5134184;27;20026;-59
2023/08/05 12:15:16;;;;;;;4.18;1.40;;;;;;;;;;5132628;27;20019;-60
2023/08/05 12:17:44;;;;;;;3.63;1.40;;;;;;;;;;5133269;27;20054;-61
2023/08/05 12:20:10;;;;;;;4.47;1.70;;;;;;;;;;5132133;27;20073;-61
2023/08/05 12:22:35;;;;;;;3.92;1.45;;;;;;;;;;5131787;27;20046;-61
2023/08/05 12:25:00;;;;;;;3.77;1.50;;;;;;;;;;5133942;27;20110;-61
2023/08/05 12:27:25;;;;;;;3.08;1.40;;;;;;;;;;5132978;27;20503;-61
2023/08/05 12:29:51;;;;;;;4.27;1.47;;;;;;;;;;5126623;27;20035;-62
2023/08/05 12:32:16;;;;;;;3.30;1.20;;;;;;;;;;5129033;27;20026;-61
2023/08/05 12:34:41;;;;;;;4.10;1.55;;;;;;;;;;5133538;27;20145;-60
2023/08/05 12:37:06;;;;;;;6.78;1.27;;;;;;;;;;5124075;27;20019;-62
2023/08/05 12:39:31;;;;;;;4.07;1.23;;;;;;;;;;5117635;27;20019;-61
2023/08/05 12:41:56;;;;;;;4.40;1.40;;;;;;;;;;5124509;27;20106;-61
2023/08/05 12:44:22;;;;;;;3.53;1.03;;;;;;;;;;5120794;27;20386;-62
2023/08/05 12:46:47;;;;;;;4.10;1.40;;;;;;;;;;5123265;27;20063;-61
2023/08/05 12:49:12;;;;;;;4.10;1.50;;;;;;;;;;5124677;27;20019;-60
2023/08/05 12:51:37;;;;;;;3.47;1.30;;;;;;;;;;5126873;27;20085;-59
2023/08/05 12:54:02;;;;;;;4.10;1.60;;;;;;;;;;5120968;27;20580;-60
2023/08/05 12:56:27;;;;;;;3.53;1.53;;;;;;;;;;5132080;27;20071;-62
2023/08/05 12:58:53;;;;;;;2.93;1.30;;;;;;;;;;5127235;27;20022;-60
2023/08/05 13:01:18;;;;;;;3.30;1.20;;;;;;;;;;5124211;27;20007;-61
2023/08/05 13:03:43;;;;;;;4.77;1.40;;;;;;;;;;5123864;27;20397;-61
2023/08/05 13:06:08;;;;;;;3.72;1.25;;;;;;;;;;5119575;27;20041;-60
2023/08/05 13:08:33;;;;;;;3.20;1.30;;;;;;;;;;5117245;27;20045;-59
2023/08/05 13:10:58;;;;;;;4.10;1.60;;;;;;;;;;5128474;27;20449;-60
2023/08/05 13:13:25;;;;;;;3.97;1.55;;;;;;;;;;5123830;27;20019;-61
2023/08/05 13:15:50;;;;;;;3.67;1.42;;;;;;;;;;5119332;27;20035;-59
2023/08/05 13:18:16;;;;;;;3.70;1.40;;;;;;;;;;5118143;27;20012;-59
2023/08/05 13:20:41;;;;;;;4.03;1.53;;;;;;;;;;5123279;27;20038;-59
2023/08/05 13:23:06;;;;;;;5.23;1.43;;;;;;;;;;5132044;27;20068;-61
2023/08/05 13:25:31;;;;;;;3.97;1.53;;;;;;;;;;5132878;27;20111;-60
2023/08/05 13:27:56;;;;;;;4.70;1.40;;;;;;;;;;5132655;27;20023;-60
2023/08/05 13:30:21;;;;;;;4.43;1.38;;;;;;;;;;5132909;27;20023;-59
2023/08/05 13:32:47;;;;;;;6.70;1.60;;;;;;;;;;5128927;27;20031;-59
2023/08/05 13:35:12;;;;;;;4.72;1.35;;;;;;;;;;5129375;27;20437;-62
2023/08/05 13:37:37;;;;;;;3.65;1.60;;;;;;;;;;5132478;27;20035;-61
2023/08/05 13:40:02;;;;;;;2.93;1.50;;;;;;;;;;5132920;27;20095;-61
2023/08/05 13:42:27;;;;;;;3.42;1.48;;;;;;;;;;5132131;27;20071;-59
2023/08/05 13:44:53;;;;;;;4.30;1.50;;;;;;;;;;5131940;27;20094;-59
2023/08/05 13:47:18;;;;;;;4.47;1.60;;;;;;;;;;5130115;27;20030;-61
2023/08/05 13:49:43;;;;;;;3.93;1.20;;;;;;;;;;5130415;27;20034;-61
2023/08/05 13:52:08;;;;;;;3.97;1.30;;;;;;;;;;5132295;27;20023;-59
2023/08/05 13:54:33;;;;;;;4.07;1.33;;;;;;;;;;5131644;27;20026;-60
2023/08/05 13:56:58;;;;;;;4.37;1.30;;;;;;;;;;5132524;27;20019;-61
2023/08/05 13:59:23;;;;;;;4.50;1.58;;;;;;;;;;5132432;27;20056;-62
2023/08/05 14:01:49;;;;;;;4.85;1.40;;;;;;;;;;5132397;27;20474;-61
2023/08/05 14:04:14;;;;;;;3.97;1.50;;;;;;;;;;5128030;27;20023;-61
2023/08/05 14:06:39;;;;;;;5.37;1.70;;;;;;;;;;5131790;27;20034;-61
2023/08/05 14:09:07;;;;;;;4.93;1.50;;;;;;;;;;5132206;27;20023;-61
2023/08/05 14:11:33;;;;;;;3.25;1.20;;;;;;;;;;5132071;27;20596;-61
2023/08/05 14:13:58;;;;;;;4.85;1.35;;;;;;;;;;5131783;27;20027;-60
2023/08/05 14:16:23;;;;;;;4.22;1.42;;;;;;;;;;5131998;27;20015;-62
2023/08/05 14:18:48;;;;;;;3.87;1.30;;;;;;;;;;5130239;27;20031;-60
2023/08/05 14:21:13;;;;;;;3.93;1.50;;;;;;;;;;5131766;27;20497;-61
2023/08/05 14:23:39;;;;;;;4.20;1.30;;;;;;;;;;5131203;27;20027;-60
2023/08/05 14:26:04;;;;;;;4.87;1.47;;;;;;;;;;5132051;27;20019;-61
2023/08/05 14:28:29;;;;;;;3.40;1.50;;;;;;;;;;5111212;27;20490;-60
2023/08/05 14:30:54;;;;;;;5.30;1.70;;;;;;;;;;5111319;28;20015;-59
2023/08/05 14:33:19;;;;;;;3.20;1.30;;;;;;;;;;5112748;28;20023;-61
2023/08/05 14:35:45;;;;;;;3.83;1.60;;;;;;;;;;5131698;27;20046;-59
2023/08/05 14:38:10;;;;;;;3.00;1.40;;;;;;;;;;5131493;27;20089;-60